Time;durP1;ratioP1;P1;durP2;ratioP2;P2;SDS_P1;SDS_P2;PMS_P1;PMS_P2;Temp;Humidity;BMP_temperature;BMP_pressure;BME280_temperature;BME280_humidity;BME280_pressure;Samples;Min_cycle;Max_cycle;Signal;HPM_P1;HPM_P2
2021/06/20 00:01:00;;;;;;;9.23;3.50;;;;;;;19.94;84.49;100050.22;5143021;27;20022;-51
2021/06/20 00:03:25;;;;;;;8.00;3.35;;;;;;;19.81;85.16;100035.91;5136727;27;20023;-49
2021/06/20 00:06:04;;;;;;;9.77;3.22;;;;;;;19.76;84.93;100019.34;5143566;27;20438;-51
2021/06/20 00:08:30;;;;;;;7.63;2.80;;;;;;;19.88;84.42;100022.25;5119591;27;20251;-50
2021/06/20 00:10:55;;;;;;;6.85;2.70;;;;;;;20.03;84.29;100012.56;5140818;27;20042;-53
2021/06/20 00:13:21;;;;;;;6.82;2.53;;;;;;;20.15;82.58;100003.09;5122628;27;20613;-52
2021/06/20 00:15:49;;;;;;;8.65;2.20;;;;;;;20.25;82.76;100009.59;5129794;27;20027;-49
2021/06/20 00:18:16;;;;;;;6.00;2.45;;;;;;;20.18;82.97;100008.22;5126222;27;20094;-52
2021/06/20 00:20:47;;;;;;;6.22;2.67;;;;;;;20.13;81.38;100017.38;5112748;27;20368;-49
2021/06/20 00:23:13;;;;;;;3.78;1.95;;;;;;;19.89;82.94;100028.41;5138785;27;20114;-51
2021/06/20 00:25:39;;;;;;;5.90;2.60;;;;;;;20.10;82.56;100036.97;5140066;27;20448;-51
2021/06/20 00:28:06;;;;;;;6.63;1.92;;;;;;;19.96;82.17;100028.94;5120327;27;20061;-51
2021/06/20 00:30:36;;;;;;;4.97;2.00;;;;;;;19.99;82.57;100023.44;5138869;27;20148;-51
2021/06/20 00:33:03;;;;;;;7.38;2.08;;;;;;;19.86;82.44;100013.50;5129430;27;20035;-50
2021/06/20 00:35:28;;;;;;;5.82;2.20;;;;;;;19.59;83.31;99994.56;5126221;27;20079;-54
2021/06/20 00:37:55;;;;;;;6.32;2.08;;;;;;;19.79;83.14;100001.47;5104693;27;20421;-52
2021/06/20 00:40:21;;;;;;;5.05;2.00;;;;;;;19.66;83.09;99992.47;5129877;27;20038;-51
2021/06/20 00:42:48;;;;;;;5.28;2.20;;;;;;;19.85;82.74;100010.94;5127300;27;20293;-50
2021/06/20 00:45:17;;;;;;;5.22;1.75;;;;;;;19.74;81.82;100017.66;5107549;27;20403;-52
2021/06/20 00:47:43;;;;;;;;;;;;;;;19.56;83.60;100024.78;5126956;27;20071;-51
2021/06/20 00:50:11;;;;;;;4.70;2.20;;;;;;;19.66;81.91;100027.81;5109992;27;19950;-52
2021/06/20 00:52:38;;;;;;;7.45;2.33;;;;;;;19.62;83.63;100033.31;5104059;27;21490;-50
2021/06/20 00:55:05;;;;;;;4.88;2.42;;;;;;;19.65;82.41;100030.53;5109084;27;20047;-50
2021/06/20 00:57:32;;;;;;;7.18;2.28;;;;;;;19.55;83.14;100024.88;5127394;27;20364;-51
2021/06/20 00:59:59;;;;;;;7.80;2.70;;;;;;;19.60;82.92;100022.81;5118599;27;20039;-53
2021/06/20 01:02:24;;;;;;;7.47;2.90;;;;;;;19.52;83.27;100014.41;5118090;27;20421;-50
2021/06/20 01:04:51;;;;;;;7.22;2.22;;;;;;;19.52;83.90;100012.63;5122184;27;20038;-50
2021/06/20 01:07:21;;;;;;;4.35;2.60;;;;;;;19.56;83.62;100000.91;5124701;27;20125;-53
2021/06/20 01:09:50;;;;;;;8.23;2.78;;;;;;;19.61;83.53;100000.66;5116350;27;20967;-51
2021/06/20 01:12:18;;;;;;;6.63;2.35;;;;;;;19.54;83.69;99996.63;5125351;27;20034;-51
2021/06/20 01:14:45;;;;;;;5.90;2.30;;;;;;;19.47;83.58;99995.25;5128275;27;20117;-52
2021/06/20 01:17:11;;;;;;;7.50;2.78;;;;;;;19.45;83.01;99983.84;5122677;27;20047;-51
2021/06/20 01:19:38;;;;;;;4.20;1.77;;;;;;;19.40;83.51;99984.09;5125405;27;20047;-50
2021/06/20 01:22:25;;;;;;;4.32;1.92;;;;;;;19.45;83.24;99974.09;5125684;27;20029;-49
2021/06/20 01:24:55;;;;;;;8.05;2.15;;;;;;;19.43;83.57;99969.84;5124195;27;20491;-51
2021/06/20 01:27:28;;;;;;;5.70;2.00;;;;;;;19.40;83.55;99974.34;5119096;27;20065;-49
2021/06/20 01:29:53;;;;;;;5.00;2.10;;;;;;;19.37;84.64;99971.88;5129389;27;20031;-52
2021/06/20 01:32:19;;;;;;;3.95;2.00;;;;;;;19.28;85.15;99961.75;5126546;27;20470;-52
2021/06/20 01:34:46;;;;;;;6.38;2.30;;;;;;;19.48;83.08;99959.84;5123331;27;20031;-49
2021/06/20 01:37:14;;;;;;;7.60;1.98;;;;;;;19.60;84.46;99953.88;5125557;27;20035;-53
2021/06/20 01:39:41;;;;;;;3.95;2.00;;;;;;;19.55;83.34;99951.47;5123724;27;20384;-49
2021/06/20 01:42:07;;;;;;;5.18;2.50;;;;;;;19.54;84.35;99943.63;5122066;27;20035;-50
2021/06/20 01:44:48;;;;;;;3.70;1.80;;;;;;;19.58;83.29;99934.56;5115885;27;20402;-50
2021/06/20 01:47:14;;;;;;;9.88;2.45;;;;;;;19.52;84.64;99924.28;5122081;27;20231;-52
2021/06/20 01:49:40;;;;;;;4.43;2.42;;;;;;;19.67;83.70;99928.75;5123978;27;20059;-49
2021/06/20 01:52:06;;;;;;;7.80;2.67;;;;;;;19.55;84.42;99945.34;5120497;27;20349;-52
2021/06/20 01:54:36;;;;;;;6.22;2.47;;;;;;;19.54;83.64;99944.47;5122088;27;20038;-50
2021/06/20 01:57:03;;;;;;;6.95;2.50;;;;;;;19.59;83.82;99956.63;5125021;27;20593;-49
2021/06/20 01:59:29;;;;;;;8.13;2.67;;;;;;;19.53;82.33;99957.81;5116262;27;20030;-49
2021/06/20 02:01:55;;;;;;;6.15;2.80;;;;;;;19.59;84.07;99968.06;5096720;27;20454;-49
2021/06/20 02:04:20;;;;;;;9.25;2.90;;;;;;;19.58;83.18;99982.28;5121768;27;20398;-49
2021/06/20 02:06:46;;;;;;;5.65;2.33;;;;;;;19.62;83.92;99982.94;5142669;27;20760;-50
2021/06/20 02:09:13;;;;;;;5.22;2.40;;;;;;;19.59;84.86;99977.81;5138471;27;20037;-49
2021/06/20 02:11:38;;;;;;;7.80;2.50;;;;;;;19.49;83.52;99972.16;5142430;27;20282;-51
2021/06/20 02:14:04;;;;;;;6.85;2.70;;;;;;;19.50;82.43;99974.72;5122528;27;20042;-49
2021/06/20 02:16:29;;;;;;;10.10;2.65;;;;;;;19.54;83.80;99986.03;5121115;27;20070;-49
2021/06/20 02:18:55;;;;;;;7.13;3.00;;;;;;;19.57;83.92;99976.09;5141861;27;20034;-53
2021/06/20 02:21:21;;;;;;;8.30;2.85;;;;;;;19.58;83.14;99984.94;5146899;27;20035;-50
2021/06/20 02:23:47;;;;;;;6.53;2.85;;;;;;;19.64;83.66;99983.75;5137718;27;20046;-50
2021/06/20 02:26:12;;;;;;;5.85;3.00;;;;;;;19.55;82.31;99977.16;5138986;27;20134;-51
2021/06/20 02:28:38;;;;;;;6.97;3.13;;;;;;;19.61;84.13;99998.00;5140236;27;20031;-49
2021/06/20 02:31:04;;;;;;;10.43;3.47;;;;;;;19.64;84.32;99997.84;5126721;27;20052;-50
2021/06/20 02:33:29;;;;;;;10.02;3.03;;;;;;;19.64;84.44;100021.72;5140223;27;20019;-53
2021/06/20 02:35:55;;;;;;;8.23;2.80;;;;;;;19.49;83.22;100047.22;5125738;27;20087;-51
2021/06/20 02:38:20;;;;;;;8.00;3.60;;;;;;;19.56;83.92;100064.53;5124893;27;20042;-51
2021/06/20 02:40:46;;;;;;;7.70;3.20;;;;;;;19.60;84.36;100054.63;5129501;27;20054;-50
2021/06/20 02:43:12;;;;;;;9.32;3.20;;;;;;;19.61;83.71;100074.91;5122883;27;20070;-52
2021/06/20 02:45:37;;;;;;;9.02;3.40;;;;;;;19.58;83.56;100093.63;5123735;27;20058;-49
2021/06/20 02:48:03;;;;;;;9.98;3.28;;;;;;;19.44;83.95;100077.56;5103031;27;20544;-51
2021/06/20 02:50:31;;;;;;;9.47;3.33;;;;;;;19.33;84.98;100086.06;5120047;27;20414;-52
2021/06/20 02:52:57;;;;;;;8.85;3.55;;;;;;;19.53;84.38;100087.69;5126424;27;20035;-50
2021/06/20 02:55:22;;;;;;;8.05;3.22;;;;;;;19.39;84.98;100076.00;5118643;27;20154;-51
2021/06/20 02:57:48;;;;;;;6.22;2.92;;;;;;;19.39;83.38;100083.94;5119078;27;20360;-49
2021/06/20 03:00:15;;;;;;;10.15;3.45;;;;;;;19.36;85.36;100092.06;5115913;27;20031;-51
2021/06/20 03:02:41;;;;;;;10.90;3.30;;;;;;;19.46;84.04;100100.41;5131814;27;20035;-49
2021/06/20 03:05:08;;;;;;;7.00;3.67;;;;;;;19.56;84.44;100108.75;5115476;27;20062;-52
2021/06/20 03:07:34;;;;;;;8.20;3.78;;;;;;;19.61;83.88;100124.44;5104252;27;20491;-52
2021/06/20 03:09:59;;;;;;;9.55;3.63;;;;;;;19.55;83.85;100128.25;5136013;27;20118;-51
2021/06/20 03:12:25;;;;;;;10.25;3.88;;;;;;;19.35;85.93;100131.88;5137819;27;20376;-51
2021/06/20 03:14:51;;;;;;;12.30;3.78;;;;;;;19.25;83.66;100142.09;5140173;27;20118;-51
2021/06/20 03:17:19;;;;;;;11.27;3.88;;;;;;;19.26;86.44;100145.59;5141946;27;20482;-53
2021/06/20 03:19:46;;;;;;;7.75;4.03;;;;;;;19.46;84.95;100141.97;5136280;27;20387;-53
2021/06/20 03:22:12;;;;;;;12.10;4.25;;;;;;;19.36;85.40;100131.81;5139620;27;20027;-53
2021/06/20 03:24:44;;;;;;;10.18;3.75;;;;;;;19.35;84.86;100159.25;5139411;27;20031;-52
2021/06/20 03:27:10;;;;;;;8.00;3.97;;;;;;;19.43;84.74;100153.56;5136994;27;20031;-53
2021/06/20 03:29:36;;;;;;;10.48;4.22;;;;;;;19.39;85.51;100163.44;5138739;27;20041;-53
2021/06/20 03:32:03;;;;;;;10.65;4.15;;;;;;;19.36;85.48;100160.97;5137319;27;20049;-52
2021/06/20 03:34:31;;;;;;;9.30;4.07;;;;;;;19.21;86.96;100154.63;5138434;27;20151;-53
2021/06/20 03:36:56;;;;;;;9.03;4.17;;;;;;;19.46;84.46;100156.06;5137289;27;20434;-56
2021/06/20 03:39:22;;;;;;;10.35;4.28;;;;;;;19.34;83.31;100154.91;5142766;27;20483;-51
2021/06/20 03:41:48;;;;;;;12.15;4.75;;;;;;;19.44;85.26;100149.13;5145749;27;20039;-54
2021/06/20 03:44:13;;;;;;;10.77;4.22;;;;;;;19.47;85.75;100138.38;5119489;27;20043;-53
2021/06/20 03:46:39;;;;;;;12.02;4.20;;;;;;;19.37;83.83;100159.16;5121479;27;20034;-54
2021/06/20 03:49:05;;;;;;;10.10;4.53;;;;;;;19.17;86.06;100146.91;5126857;27;20685;-56
2021/06/20 03:51:31;;;;;;;8.32;4.70;;;;;;;19.15;86.65;100162.00;5142768;27;20110;-55
2021/06/20 03:53:58;;;;;;;7.55;3.70;;;;;;;18.93;87.10;100163.06;5141307;27;20437;-55
2021/06/20 03:56:23;;;;;;;7.85;3.85;;;;;;;18.85;87.84;100159.88;5140252;27;20565;-54
2021/06/20 03:58:49;;;;;;;9.02;4.15;;;;;;;18.83;88.22;100161.72;5143988;27;20079;-53
2021/06/20 04:01:15;;;;;;;9.88;4.05;;;;;;;19.03;86.20;100168.78;5132932;27;20041;-56
2021/06/20 04:03:41;;;;;;;6.57;3.90;;;;;;;18.74;88.27;100170.13;5142397;27;20038;-55
2021/06/20 04:06:06;;;;;;;8.23;5.18;;;;;;;18.58;88.91;100164.66;5142602;27;20100;-53
2021/06/20 04:08:32;;;;;;;8.93;4.20;;;;;;;18.89;86.70;100158.84;5138545;27;20042;-55
2021/06/20 04:10:58;;;;;;;10.45;4.68;;;;;;;18.92;86.00;100165.78;5125143;27;20039;-56
2021/06/20 04:13:24;;;;;;;7.78;3.67;;;;;;;18.95;85.18;100166.47;5092618;27;20125;-53
2021/06/20 04:15:49;;;;;;;9.75;4.03;;;;;;;18.73;87.13;100171.88;5125612;27;20029;-53
2021/06/20 04:18:15;;;;;;;8.43;4.00;;;;;;;18.47;88.95;100178.38;5148008;27;20129;-56
2021/06/20 04:20:41;;;;;;;8.20;3.70;;;;;;;18.49;89.07;100177.38;5120616;27;20047;-57
2021/06/20 04:23:06;;;;;;;7.97;3.80;;;;;;;18.36;89.36;100179.72;5146393;27;20138;-54
2021/06/20 04:25:32;;;;;;;5.80;3.17;;;;;;;18.79;85.90;100183.97;5123775;27;20064;-57
2021/06/20 04:27:58;;;;;;;5.05;3.25;;;;;;;18.68;86.62;100188.00;5140741;27;20038;-54
2021/06/20 04:30:24;;;;;;;7.03;2.80;;;;;;;18.88;84.79;100197.72;5144015;27;20057;-56
2021/06/20 04:32:51;;;;;;;5.15;2.60;;;;;;;18.95;82.87;100200.91;5120533;27;20537;-53
2021/06/20 04:35:19;;;;;;;6.55;2.75;;;;;;;18.62;85.64;100209.47;5124060;27;20053;-54
2021/06/20 04:37:45;;;;;;;6.20;2.57;;;;;;;18.97;83.12;100199.06;5145443;27;20501;-54
2021/06/20 04:40:15;;;;;;;9.27;3.50;;;;;;;18.66;86.48;100199.59;5136158;27;20387;-52
2021/06/20 04:42:43;;;;;;;5.95;3.00;;;;;;;18.85;86.55;100199.59;5124187;27;20061;-53
2021/06/20 04:45:10;;;;;;;5.43;2.67;;;;;;;18.50;87.20;100204.72;5125358;27;20089;-54
2021/06/20 04:47:38;;;;;;;5.13;3.20;;;;;;;18.74;86.36;100212.47;5119718;27;20121;-56
2021/06/20 04:50:05;;;;;;;5.03;2.53;;;;;;;19.14;81.12;100202.69;5109016;27;20091;-53
2021/06/20 04:52:32;;;;;;;4.55;2.63;;;;;;;19.03;82.05;100212.00;5125172;27;20035;-55
2021/06/20 04:54:58;;;;;;;6.38;2.60;;;;;;;18.97;81.69;100209.66;5123895;27;20091;-56
2021/06/20 04:57:29;;;;;;;5.20;2.90;;;;;;;18.55;86.63;100208.88;5113308;27;20040;-54
2021/06/20 04:59:57;;;;;;;5.20;2.55;;;;;;;18.78;83.08;100216.72;5094131;27;20031;-56
2021/06/20 05:02:23;;;;;;;;;;;;;;;18.78;82.84;100227.28;5114974;27;20046;-56
2021/06/20 05:04:50;;;;;;;7.72;2.63;;;;;;;18.65;84.25;100222.56;5121764;27;20290;-56
2021/06/20 05:07:17;;;;;;;4.50;2.80;;;;;;;18.43;86.54;100220.03;5118825;27;20023;-57
2021/06/20 05:09:43;;;;;;;8.02;3.10;;;;;;;18.37;87.01;100214.97;5141322;27;20742;-54
2021/06/20 05:12:09;;;;;;;6.60;2.72;;;;;;;18.93;81.81;100212.50;5123098;27;20217;-57
2021/06/20 05:14:39;;;;;;;6.93;2.70;;;;;;;18.80;83.08;100220.13;5120652;27;20041;-57
2021/06/20 05:17:07;;;;;;;4.60;2.70;;;;;;;19.03;79.99;100213.78;5121229;27;20353;-57
2021/06/20 05:19:33;;;;;;;7.28;2.90;;;;;;;18.95;82.15;100208.84;5085049;27;21301;-57
2021/06/20 05:21:59;;;;;;;5.03;2.63;;;;;;;18.78;82.20;100206.97;5113981;27;20024;-57
2021/06/20 05:24:24;;;;;;;4.75;2.70;;;;;;;18.75;83.44;100212.41;5143483;27;20236;-55
2021/06/20 05:26:50;;;;;;;7.10;3.00;;;;;;;18.64;82.87;100220.84;5134669;27;20063;-55
2021/06/20 05:29:16;;;;;;;5.13;2.90;;;;;;;18.84;81.60;100214.63;5142105;27;20030;-58
2021/06/20 05:31:42;;;;;;;6.57;3.10;;;;;;;18.57;84.39;100210.56;5101019;27;20053;-59
2021/06/20 05:34:07;;;;;;;6.57;3.00;;;;;;;18.61;82.98;100207.75;5142348;27;20128;-55
2021/06/20 05:36:33;;;;;;;6.38;2.85;;;;;;;18.74;82.15;100215.13;5126117;27;20018;-57
2021/06/20 05:38:59;;;;;;;6.03;3.10;;;;;;;18.92;80.55;100216.94;5118760;27;20080;-57
2021/06/20 05:41:25;;;;;;;5.38;3.22;;;;;;;18.86;80.55;100218.06;5132628;27;20598;-57
2021/06/20 05:43:52;;;;;;;5.45;3.30;;;;;;;18.70;83.16;100222.34;5135849;27;20034;-59
2021/06/20 05:46:19;;;;;;;5.70;2.70;;;;;;;18.84;80.88;100234.94;5137263;27;20049;-58
2021/06/20 05:48:45;;;;;;;5.22;2.78;;;;;;;18.67;83.13;100225.97;5108744;27;20027;-58
2021/06/20 05:51:11;;;;;;;5.30;2.65;;;;;;;19.12;77.71;100233.69;5101111;27;20043;-53
2021/06/20 05:53:37;;;;;;;4.50;2.80;;;;;;;19.12;78.91;100231.03;5133051;27;20132;-57
2021/06/20 05:56:03;;;;;;;5.38;2.80;;;;;;;19.35;78.26;100246.69;5135513;27;20507;-56
2021/06/20 05:58:28;;;;;;;8.88;3.20;;;;;;;19.14;81.37;100243.28;5122760;27;20027;-55
2021/06/20 06:00:54;;;;;;;5.55;3.08;;;;;;;19.08;79.37;100238.28;5145448;27;20027;-58
2021/06/20 06:03:20;;;;;;;8.00;2.90;;;;;;;19.21;77.39;100239.41;5112080;27;20035;-58
2021/06/20 06:05:46;;;;;;;4.22;2.30;;;;;;;19.57;74.39;100227.97;5122864;27;20039;-56
2021/06/20 06:08:11;;;;;;;3.63;2.60;;;;;;;19.05;79.78;100233.13;5118110;27;20384;-58
2021/06/20 06:10:37;;;;;;;6.15;3.08;;;;;;;18.78;82.48;100233.44;5134238;27;20082;-58
2021/06/20 06:13:03;;;;;;;5.13;3.05;;;;;;;18.78;84.39;100224.66;5141600;27;20389;-57
2021/06/20 06:15:30;;;;;;;4.40;2.70;;;;;;;19.17;79.17;100235.19;5128606;27;20519;-58
2021/06/20 06:17:56;;;;;;;4.80;3.00;;;;;;;19.08;79.79;100243.59;5129454;27;20031;-59
2021/06/20 06:20:22;;;;;;;5.05;3.05;;;;;;;19.11;81.75;100239.94;5109397;27;20027;-56
2021/06/20 06:22:48;;;;;;;6.30;3.20;;;;;;;18.89;78.12;100243.56;5125953;27;20577;-59
2021/06/20 06:25:14;;;;;;;5.55;2.80;;;;;;;18.97;81.57;100246.72;5120604;27;20038;-59
2021/06/20 06:27:44;;;;;;;5.03;3.55;;;;;;;19.11;77.89;100240.78;5120507;27;20042;-58
2021/06/20 06:30:10;;;;;;;4.63;2.75;;;;;;;18.94;79.46;100240.72;5136698;27;20065;-57
2021/06/20 06:32:37;;;;;;;5.97;3.08;;;;;;;19.30;78.01;100248.72;5139649;27;20056;-57
2021/06/20 06:35:03;;;;;;;4.88;2.50;;;;;;;19.43;75.45;100237.53;5092693;27;20047;-57
2021/06/20 06:37:29;;;;;;;4.40;2.47;;;;;;;19.44;75.04;100240.13;5127560;27;20116;-58
2021/06/20 06:39:55;;;;;;;4.78;2.80;;;;;;;19.50;75.32;100236.31;5116824;27;20507;-55
2021/06/20 06:42:25;;;;;;;5.35;2.65;;;;;;;19.59;74.35;100243.78;5105864;27;20061;-58
2021/06/20 06:44:53;;;;;;;4.55;2.97;;;;;;;19.95;72.48;100242.94;5134764;27;20049;-56
2021/06/20 06:47:20;;;;;;;8.48;3.05;;;;;;;19.80;74.62;100244.56;5140968;27;20039;-53
2021/06/20 06:49:46;;;;;;;4.13;2.58;;;;;;;19.94;72.34;100238.56;5137599;27;20487;-53
2021/06/20 06:52:12;;;;;;;4.28;2.50;;;;;;;19.78;73.90;100253.50;5119734;27;20167;-57
2021/06/20 06:54:38;;;;;;;5.15;2.63;;;;;;;19.66;73.05;100239.91;5121534;27;20055;-54
2021/06/20 06:57:04;;;;;;;4.55;2.55;;;;;;;19.56;77.22;100247.47;5120466;27;20042;-54
2021/06/20 06:59:30;;;;;;;7.25;2.80;;;;;;;19.87;73.26;100237.16;5143598;27;20035;-53
2021/06/20 07:01:56;;;;;;;5.95;2.70;;;;;;;19.89;73.33;100230.81;5121032;27;20511;-51
2021/06/20 07:04:22;;;;;;;5.95;2.60;;;;;;;20.05;71.50;100251.28;5134427;27;20026;-51
2021/06/20 07:06:49;;;;;;;5.97;3.13;;;;;;;19.96;71.64;100246.44;5106323;27;20038;-53
2021/06/20 07:09:15;;;;;;;10.10;2.60;;;;;;;19.86;70.00;100244.25;5138856;27;20035;-52
2021/06/20 07:11:42;;;;;;;4.70;2.50;;;;;;;19.95;73.22;100258.00;5136478;27;21059;-55
2021/06/20 07:14:08;;;;;;;3.95;2.55;;;;;;;20.16;71.01;100250.72;5140568;27;20065;-54
2021/06/20 07:16:36;;;;;;;3.30;2.22;;;;;;;20.27;67.61;100255.47;5118648;27;20039;-52
2021/06/20 07:19:01;;;;;;;4.57;2.30;;;;;;;20.20;69.36;100250.50;5138292;27;20043;-52
2021/06/20 07:21:27;;;;;;;3.30;2.05;;;;;;;20.59;66.74;100265.28;5119538;27;20049;-48
2021/06/20 07:23:52;;;;;;;4.97;2.17;;;;;;;20.53;64.56;100264.75;5136079;27;20038;-50
2021/06/20 07:26:18;;;;;;;4.78;1.85;;;;;;;20.61;64.32;100264.34;5124808;27;20482;-50
2021/06/20 07:28:45;;;;;;;5.25;2.20;;;;;;;20.39;66.55;100271.66;5138545;27;20042;-51
2021/06/20 07:31:11;;;;;;;4.80;2.50;;;;;;;20.14;68.80;100271.19;5136490;27;20496;-52
2021/06/20 07:33:36;;;;;;;4.28;2.40;;;;;;;20.47;67.50;100267.72;5142396;27;21214;-48
2021/06/20 07:36:02;;;;;;;3.67;2.30;;;;;;;20.83;65.95;100278.22;5134265;27;20369;-52
2021/06/20 07:38:28;;;;;;;4.97;2.10;;;;;;;20.86;66.57;100269.22;5119958;27;20594;-50
2021/06/20 07:40:54;;;;;;;4.07;2.28;;;;;;;20.75;66.54;100265.38;5121600;27;20018;-48
2021/06/20 07:43:22;;;;;;;4.60;2.20;;;;;;;21.06;64.38;100271.66;5121152;27;20509;-51
2021/06/20 07:45:48;;;;;;;4.80;2.72;;;;;;;21.21;63.58;100269.09;5126603;27;20035;-50
2021/06/20 07:48:15;;;;;;;3.10;2.05;;;;;;;21.23;63.89;100254.78;5117784;27;20382;-52
2021/06/20 07:50:40;;;;;;;4.18;2.10;;;;;;;20.85;67.19;100265.72;5100326;27;20030;-48
2021/06/20 07:53:07;;;;;;;4.20;2.08;;;;;;;21.07;63.99;100268.06;5119169;27;20047;-49
2021/06/20 07:55:32;;;;;;;3.17;2.10;;;;;;;21.16;62.43;100274.66;5091264;27;20387;-48
2021/06/20 07:57:58;;;;;;;4.63;2.00;;;;;;;20.98;62.50;100283.66;5100405;27;20040;-51
2021/06/20 08:00:24;;;;;;;3.20;1.98;;;;;;;20.95;62.11;100283.81;5084523;27;20036;-48
2021/06/20 08:02:50;;;;;;;4.07;2.10;;;;;;;20.63;65.68;100273.97;5114954;27;20039;-49
2021/06/20 08:05:16;;;;;;;3.72;2.22;;;;;;;20.53;65.27;100264.75;5082044;27;20023;-49
2021/06/20 08:07:42;;;;;;;3.42;2.10;;;;;;;20.59;66.95;100254.66;5118009;27;20043;-49
2021/06/20 08:10:08;;;;;;;3.42;2.13;;;;;;;21.03;62.65;100258.56;5118130;27;20311;-49
2021/06/20 08:12:34;;;;;;;4.07;2.20;;;;;;;20.88;65.21;100260.25;5121503;27;20027;-51
2021/06/20 08:15:00;;;;;;;3.92;2.13;;;;;;;21.09;63.88;100255.53;5120539;27;20051;-51
2021/06/20 08:17:27;;;;;;;4.43;1.95;;;;;;;21.45;62.19;100253.56;5117759;27;20243;-52
2021/06/20 08:19:52;;;;;;;4.68;2.15;;;;;;;21.52;60.31;100251.44;5092145;27;20042;-49
2021/06/20 08:22:19;;;;;;;3.92;2.10;;;;;;;21.56;63.35;100260.97;5120654;27;20033;-51
2021/06/20 08:24:46;;;;;;;3.13;2.13;;;;;;;21.91;59.74;100258.91;5122672;27;20146;-49
2021/06/20 08:27:12;;;;;;;3.30;1.75;;;;;;;21.75;58.16;100264.28;5125290;27;20049;-51
2021/06/20 08:29:38;;;;;;;5.40;2.13;;;;;;;21.93;58.07;100250.84;5122895;27;20255;-50
2021/06/20 08:32:05;;;;;;;5.20;2.10;;;;;;;21.76;59.09;100243.84;5116483;27;20425;-52
2021/06/20 08:34:31;;;;;;;3.38;1.80;;;;;;;21.82;57.65;100253.28;5118286;27;20135;-53
2021/06/20 08:36:59;;;;;;;3.55;2.10;;;;;;;21.93;58.76;100250.84;5120172;27;20035;-50
2021/06/20 08:39:25;;;;;;;4.38;2.10;;;;;;;22.11;57.83;100247.09;5117815;27;20035;-49
2021/06/20 08:41:51;;;;;;;2.13;1.67;;;;;;;21.98;57.44;100243.44;5114966;27;20275;-51
2021/06/20 08:44:30;;;;;;;4.13;2.05;;;;;;;21.84;57.71;100254.91;5122718;27;20489;-49
2021/06/20 08:46:56;;;;;;;3.47;2.00;;;;;;;21.99;57.71;100238.97;5126169;27;20870;-50
2021/06/20 08:49:23;;;;;;;6.18;2.33;;;;;;;21.93;57.41;100245.53;5099937;27;20520;-49
2021/06/20 08:51:51;;;;;;;3.65;2.10;;;;;;;21.68;57.61;100249.63;5112525;27;20066;-49
2021/06/20 08:54:18;;;;;;;2.78;1.90;;;;;;;21.88;58.94;100256.44;5126750;27;20045;-53
2021/06/20 08:56:44;;;;;;;3.35;2.08;;;;;;;21.85;58.36;100247.78;5135675;27;20113;-53
2021/06/20 08:59:14;;;;;;;5.97;2.45;;;;;;;21.78;58.78;100247.31;5135364;27;20030;-51
2021/06/20 09:01:40;;;;;;;3.28;1.90;;;;;;;21.76;57.35;100242.03;5121328;27;20031;-49
2021/06/20 09:04:06;;;;;;;4.32;2.10;;;;;;;21.81;59.63;100256.88;5123519;27;20046;-50
2021/06/20 09:06:31;;;;;;;4.95;2.15;;;;;;;21.87;58.09;100241.41;5122600;27;20035;-52
2021/06/20 09:09:00;;;;;;;3.13;2.10;;;;;;;21.65;61.20;100246.28;5120164;27;20564;-49
2021/06/20 09:11:29;;;;;;;4.30;2.30;;;;;;;21.74;61.44;100243.94;5115257;27;20074;-53
2021/06/20 09:14:08;;;;;;;4.65;2.20;;;;;;;22.03;58.28;100240.50;5121162;27;21125;-49
2021/06/20 09:16:44;;;;;;;2.88;1.80;;;;;;;22.17;58.38;100242.38;5120695;27;20058;-52
2021/06/20 09:19:09;;;;;;;4.45;1.95;;;;;;;22.17;59.98;100239.72;5138192;27;20419;-50
2021/06/20 09:21:35;;;;;;;3.38;1.98;;;;;;;22.39;57.33;100247.28;5117276;27;20066;-49
2021/06/20 09:24:02;;;;;;;6.25;1.92;;;;;;;22.32;55.81;100251.22;5124625;27;20058;-52
2021/06/20 09:26:39;;;;;;;2.63;1.77;;;;;;;22.19;56.15;100251.13;5105592;27;20039;-52
2021/06/20 09:29:06;;;;;;;4.53;1.80;;;;;;;22.30;57.12;100253.97;5089337;27;20073;-51
2021/06/20 09:31:47;;;;;;;2.28;1.80;;;;;;;22.50;54.03;100249.28;5110019;27;20414;-48
2021/06/20 09:34:13;;;;;;;3.72;1.92;;;;;;;22.73;53.78;100247.84;5095893;27;20046;-48
2021/06/20 09:36:39;;;;;;;3.03;1.80;;;;;;;22.81;52.97;100253.56;5104326;27;20035;-50
2021/06/20 09:39:16;;;;;;;2.95;1.58;;;;;;;23.15;50.60;100263.94;5117505;27;20047;-47
2021/06/20 09:41:43;;;;;;;3.47;1.90;;;;;;;23.00;52.95;100271.94;5121882;27;20387;-49
2021/06/20 09:44:08;;;;;;;2.80;1.80;;;;;;;23.28;51.02;100262.19;5109335;27;20035;-50
2021/06/20 09:46:34;;;;;;;4.05;1.88;;;;;;;23.01;51.37;100260.31;5121197;27;20046;-49
2021/06/20 09:49:00;;;;;;;2.30;1.63;;;;;;;23.31;50.57;100262.00;5122534;27;20039;-48
2021/06/20 09:51:30;;;;;;;3.08;1.52;;;;;;;23.41;51.03;100256.91;5124816;27;20152;-50
2021/06/20 09:53:56;;;;;;;3.25;2.08;;;;;;;23.48;50.38;100246.72;5122882;27;20043;-50
2021/06/20 09:56:28;;;;;;;3.10;1.90;;;;;;;23.37;52.15;100256.28;5105853;27;20061;-48
2021/06/20 09:59:06;;;;;;;3.08;1.98;;;;;;;23.52;54.25;100256.22;5119378;27;21291;-51
2021/06/20 10:01:35;;;;;;;5.03;1.80;;;;;;;23.43;51.00;100263.88;5121770;27;20962;-50
2021/06/20 10:04:02;;;;;;;4.00;1.88;;;;;;;23.41;52.40;100268.47;5121550;27;20041;-52
2021/06/20 10:06:28;;;;;;;3.85;1.83;;;;;;;23.48;50.69;100252.03;5123270;27;20499;-50
2021/06/20 10:08:54;;;;;;;4.07;1.80;;;;;;;23.33;53.53;100259.22;5119525;27;20051;-51
2021/06/20 10:11:20;;;;;;;3.50;2.03;;;;;;;23.63;52.77;100257.25;5127468;27;20478;-50
2021/06/20 10:13:47;;;;;;;3.67;1.45;;;;;;;23.82;50.39;100256.00;5121069;27;20053;-49
2021/06/20 10:16:17;;;;;;;2.60;1.60;;;;;;;23.94;47.81;100255.22;5119690;27;20483;-49
2021/06/20 10:19:11;;;;;;;3.30;1.67;;;;;;;23.70;53.64;100263.00;5121125;27;20039;-49
2021/06/20 10:21:42;;;;;;;2.65;1.80;;;;;;;23.83;50.88;100251.50;5126368;27;20522;-51
2021/06/20 10:24:09;;;;;;;2.80;1.50;;;;;;;24.13;49.64;100248.63;5121912;27;20054;-50
2021/06/20 10:26:37;;;;;;;3.03;1.93;;;;;;;24.14;48.35;100240.50;5122477;27;20235;-50
2021/06/20 10:29:24;;;;;;;3.63;2.00;;;;;;;24.16;49.41;100242.22;5105277;27;20531;-49
2021/06/20 10:31:51;;;;;;;3.37;1.83;;;;;;;24.48;47.32;100242.69;5119995;27;20034;-49
2021/06/20 10:34:32;;;;;;;4.93;1.67;;;;;;;24.47;47.39;100236.47;5119434;27;20030;-49
2021/06/20 10:37:00;;;;;;;3.30;1.75;;;;;;;24.43;48.28;100250.16;5115203;27;20115;-51
2021/06/20 10:39:26;;;;;;;;;;;;;;;24.00;47.71;100248.59;5122447;27;20039;-52
2021/06/20 10:42:10;;;;;;;3.25;1.80;;;;;;;24.19;48.57;100250.88;5112024;27;20485;-49
2021/06/20 10:44:44;;;;;;;4.18;2.10;;;;;;;24.20;47.90;100244.56;5125765;27;20031;-50
2021/06/20 10:47:10;;;;;;;2.97;1.70;;;;;;;24.12;48.32;100245.09;5117395;27;20142;-51
2021/06/20 10:49:37;;;;;;;4.10;1.90;;;;;;;23.87;48.98;100237.00;5123756;27;20431;-48
2021/06/20 10:52:17;;;;;;;4.18;2.10;;;;;;;24.02;50.86;100240.50;5120530;27;20035;-53
2021/06/20 10:54:43;;;;;;;6.80;2.28;;;;;;;23.94;49.17;100239.19;5121983;27;20505;-52
2021/06/20 10:57:11;;;;;;;4.13;1.95;;;;;;;23.82;50.89;100231.16;5122138;27;20093;-50
2021/06/20 10:59:37;;;;;;;;;;;;;;;23.76;50.05;100216.38;5122307;27;20027;-52
2021/06/20 11:02:19;;;;;;;3.70;2.10;;;;;;;23.46;49.95;100207.66;5121138;27;19925;-53
2021/06/20 11:04:45;;;;;;;2.72;2.00;;;;;;;23.93;49.84;100205.44;5118032;27;20645;-50
2021/06/20 11:07:22;;;;;;;3.75;2.08;;;;;;;24.06;51.06;100209.94;5122687;27;20134;-50
2021/06/20 11:09:47;;;;;;;4.95;1.90;;;;;;;24.24;49.21;100198.00;5117828;27;20133;-52
2021/06/20 11:12:15;;;;;;;4.05;2.30;;;;;;;24.17;49.83;100203.88;5122472;27;20567;-51
2021/06/20 11:14:44;;;;;;;3.13;2.00;;;;;;;24.05;48.24;100209.13;5121346;27;20086;-52
2021/06/20 11:17:10;;;;;;;3.13;1.90;;;;;;;24.14;51.00;100208.47;5120504;27;20035;-49
2021/06/20 11:19:36;;;;;;;2.70;1.75;;;;;;;24.38;50.63;100210.41;5120596;27;20066;-50
2021/06/20 11:22:08;;;;;;;2.95;1.90;;;;;;;24.65;50.37;100199.59;5125345;27;20038;-52
2021/06/20 11:24:40;;;;;;;3.53;1.80;;;;;;;24.44;47.05;100198.44;5120167;27;20185;-49
2021/06/20 11:27:12;;;;;;;3.17;2.15;;;;;;;24.36;48.18;100192.78;5123090;27;20042;-48